Time;durP1;ratioP1;P1;durP2;ratioP2;P2;SDS_P1;SDS_P2;PMS_P1;PMS_P2;Temp;Humidity;BMP_temperature;BMP_pressure;BME280_temperature;BME280_humidity;BME280_pressure;Samples;Min_cycle;Max_cycle;Signal;HPM_P1;HPM_P2
2022/03/26 00:00:12;;;;;;;34.10;24.20;;;12.30;42.90;;;;;;5134938;27;20582;-58
2022/03/26 00:02:39;;;;;;;39.17;25.75;;;12.30;42.90;;;;;;5135007;27;20222;-59
2022/03/26 00:05:06;;;;;;;35.67;24.48;;;12.30;43.00;;;;;;5134786;27;20289;-59
2022/03/26 00:07:33;;;;;;;33.20;25.08;;;12.20;43.00;;;;;;5134690;27;20277;-59
2022/03/26 00:10:00;;;;;;;35.75;25.58;;;12.20;43.00;;;;;;5133390;27;20199;-59
2022/03/26 00:12:27;;;;;;;36.00;24.67;;;12.10;43.50;;;;;;5134632;27;20213;-59
2022/03/26 00:14:53;;;;;;;40.67;24.77;;;11.90;43.80;;;;;;5134693;27;20209;-59
2022/03/26 00:17:22;;;;;;;37.45;25.63;;;11.70;44.50;;;;;;5134577;27;20249;-58
2022/03/26 00:19:48;;;;;;;33.55;23.95;;;11.40;45.30;;;;;;5134454;27;20325;-59
2022/03/26 00:22:15;;;;;;;36.55;25.48;;;11.40;45.40;;;;;;5134391;27;20278;-59
2022/03/26 00:24:42;;;;;;;36.47;25.02;;;11.40;45.80;;;;;;5133089;27;20302;-59
2022/03/26 00:27:09;;;;;;;38.28;25.98;;;11.40;45.50;;;;;;5134352;27;20723;-59
2022/03/26 00:29:36;;;;;;;35.15;24.27;;;11.20;45.80;;;;;;5134121;27;20234;-59
2022/03/26 00:32:06;;;;;;;41.33;25.88;;;11.20;45.60;;;;;;5134369;27;20251;-59
2022/03/26 00:34:34;;;;;;;40.78;26.02;;;11.30;45.60;;;;;;5134333;27;20232;-58
2022/03/26 00:37:01;;;;;;;41.75;26.17;;;11.40;45.40;;;;;;5134148;27;20245;-58
2022/03/26 00:39:29;;;;;;;40.63;25.90;;;11.40;45.80;;;;;;5133681;27;20233;-59
2022/03/26 00:41:56;;;;;;;38.08;25.98;;;11.40;45.60;;;;;;5133711;27;20740;-59
2022/03/26 00:44:23;;;;;;;35.22;24.60;;;11.40;45.50;;;;;;5134133;27;20202;-59
2022/03/26 00:46:50;;;;;;;37.72;26.17;;;11.30;45.40;;;;;;5134240;27;20230;-59
2022/03/26 00:49:18;;;;;;;36.50;24.55;;;11.30;45.30;;;;;;5134116;27;20630;-59
2022/03/26 00:51:46;;;;;;;34.70;24.20;;;11.40;45.50;;;;;;5133864;27;20203;-59
2022/03/26 00:54:13;;;;;;;35.88;24.15;;;11.40;45.40;;;;;;5133698;27;20679;-59
2022/03/26 00:56:41;;;;;;;33.30;24.10;;;11.40;45.30;;;;;;5132699;27;20717;-59
2022/03/26 00:59:08;;;;;;;35.40;24.27;;;11.50;45.20;;;;;;5133955;27;20236;-58
2022/03/26 01:01:36;;;;;;;35.90;23.55;;;11.40;45.60;;;;;;5133767;27;20309;-58
2022/03/26 01:04:03;;;;;;;34.40;25.25;;;11.40;45.00;;;;;;5133801;27;20206;-58
2022/03/26 01:06:30;;;;;;;40.78;25.25;;;11.30;45.60;;;;;;5133391;27;20253;-58
2022/03/26 01:08:58;;;;;;;35.20;25.23;;;11.30;45.70;;;;;;5133337;27;20209;-58
2022/03/26 01:11:25;;;;;;;36.15;25.20;;;11.30;45.70;;;;;;5132446;27;20237;-58
2022/03/26 01:13:56;;;;;;;38.53;25.85;;;11.30;45.70;;;;;;5133828;27;20679;-58
2022/03/26 01:16:23;;;;;;;36.00;23.80;;;11.30;45.70;;;;;;5133789;27;20211;-58
2022/03/26 01:18:50;;;;;;;34.30;24.83;;;11.30;45.60;;;;;;5133630;27;20218;-58
2022/03/26 01:21:17;;;;;;;36.42;24.42;;;11.30;46.00;;;;;;5133553;27;20202;-58
2022/03/26 01:23:46;;;;;;;34.67;25.10;;;11.20;46.30;;;;;;5133758;27;20669;-58
2022/03/26 01:26:14;;;;;;;39.72;26.75;;;11.10;46.40;;;;;;5132208;27;20198;-58
2022/03/26 01:28:42;;;;;;;34.65;25.45;;;11.00;46.80;;;;;;5133619;27;20738;-58
2022/03/26 01:31:09;;;;;;;37.85;26.10;;;11.00;46.60;;;;;;5133730;27;20203;-58
2022/03/26 01:33:35;;;;;;;38.35;25.65;;;11.00;46.90;;;;;;5133813;27;20209;-58
2022/03/26 01:36:02;;;;;;;39.45;26.65;;;10.90;46.90;;;;;;5133332;27;20553;-58
2022/03/26 01:38:29;;;;;;;38.35;24.70;;;10.90;47.20;;;;;;5133489;27;20237;-58
2022/03/26 01:40:56;;;;;;;45.75;26.02;;;10.80;47.00;;;;;;5132188;27;20209;-58
2022/03/26 01:43:24;;;;;;;39.95;25.40;;;10.80;47.20;;;;;;5133551;27;20199;-58
2022/03/26 01:45:51;;;;;;;40.05;26.08;;;10.80;47.20;;;;;;5133583;27;20198;-58
2022/03/26 01:48:18;;;;;;;35.20;25.90;;;10.80;48.00;;;;;;5133316;27;20619;-58
2022/03/26 01:50:45;;;;;;;35.55;25.80;;;10.80;47.90;;;;;;5133222;27;20207;-56
2022/03/26 01:53:12;;;;;;;38.08;24.92;;;10.50;48.60;;;;;;5133603;27;20230;-56
2022/03/26 01:55:39;;;;;;;36.70;24.80;;;10.40;48.80;;;;;;5132166;27;20278;-56
2022/03/26 01:58:06;;;;;;;39.85;26.65;;;10.40;48.80;;;;;;5133315;27;20293;-56
2022/03/26 02:00:35;;;;;;;36.50;25.58;;;10.40;49.10;;;;;;5133239;27;20241;-56
2022/03/26 02:03:01;;;;;;;40.30;26.23;;;10.40;49.40;;;;;;5133141;27;20207;-56
2022/03/26 02:05:29;;;;;;;41.53;26.88;;;10.40;49.10;;;;;;5133473;27;20205;-56
2022/03/26 02:07:56;;;;;;;38.60;25.15;;;10.30;48.70;;;;;;5133162;27;20661;-56
2022/03/26 02:10:23;;;;;;;37.92;25.42;;;10.30;49.10;;;;;;5131922;27;20286;-56
2022/03/26 02:12:50;;;;;;;36.35;24.08;;;10.40;48.90;;;;;;5133235;27;20229;-56
2022/03/26 02:15:17;;;;;;;42.72;25.77;;;10.40;49.10;;;;;;5133324;27;20672;-56
2022/03/26 02:17:45;;;;;;;38.20;25.08;;;10.40;49.10;;;;;;5132943;27;20204;-56
2022/03/26 02:20:17;;;;;;;41.85;25.50;;;10.40;49.30;;;;;;5136461;27;20238;-56
2022/03/26 02:22:44;;;;;;;36.40;23.33;;;10.40;49.00;;;;;;5136734;27;20203;-56
2022/03/26 02:25:11;;;;;;;43.20;26.40;;;10.40;48.80;;;;;;5135552;27;20232;-56
2022/03/26 02:27:38;;;;;;;37.55;25.73;;;10.40;48.90;;;;;;5136909;27;20657;-57
2022/03/26 02:30:06;;;;;;;32.58;23.73;;;10.30;49.40;;;;;;5136459;27;20237;-57
2022/03/26 02:32:33;;;;;;;37.97;24.85;;;10.30;49.10;;;;;;5136642;27;20649;-57
2022/03/26 02:35:00;;;;;;;36.83;23.70;;;10.30;49.20;;;;;;5136815;27;20286;-57
2022/03/26 02:37:29;;;;;;;38.40;24.85;;;10.30;49.60;;;;;;5136432;27;20205;-56
2022/03/26 02:39:56;;;;;;;39.35;25.15;;;10.10;50.00;;;;;;5135040;27;20237;-56
2022/03/26 02:42:22;;;;;;;36.78;24.60;;;10.00;50.50;;;;;;5136488;27;20691;-56
2022/03/26 02:44:50;;;;;;;34.85;25.13;;;10.00;50.30;;;;;;5136339;27;20226;-56
2022/03/26 02:47:17;;;;;;;34.75;24.17;;;9.90;50.90;;;;;;5136353;27;20643;-56
2022/03/26 02:49:44;;;;;;;39.03;24.98;;;9.90;50.50;;;;;;5136289;27;20205;-56
2022/03/26 02:52:10;;;;;;;36.80;24.98;;;9.80;51.50;;;;;;5136223;27;20201;-56
2022/03/26 02:54:39;;;;;;;34.60;24.67;;;9.70;51.20;;;;;;5134897;27;20628;-56
2022/03/26 02:57:06;;;;;;;33.72;22.67;;;9.70;50.90;;;;;;5136180;27;20194;-56
2022/03/26 02:59:33;;;;;;;36.90;25.23;;;9.80;51.20;;;;;;5136000;27;20919;-56
2022/03/26 03:02:00;;;;;;;36.05;24.00;;;9.80;51.00;;;;;;5135963;27;20219;-56
2022/03/26 03:04:27;;;;;;;35.75;23.98;;;9.70;51.00;;;;;;5136096;27;20234;-56
2022/03/26 03:06:54;;;;;;;31.88;23.98;;;9.70;51.00;;;;;;5135817;27;20298;-56
2022/03/26 03:09:21;;;;;;;35.53;24.25;;;9.70;51.10;;;;;;5136064;27;20301;-56
2022/03/26 03:11:50;;;;;;;40.35;24.85;;;9.70;51.00;;;;;;5134523;27;20198;-56
2022/03/26 03:14:17;;;;;;;36.95;24.88;;;9.70;50.90;;;;;;5136105;27;20203;-56
2022/03/26 03:16:45;;;;;;;33.20;23.52;;;9.70;50.60;;;;;;5135935;27;20210;-56
2022/03/26 03:19:12;;;;;;;34.05;23.65;;;9.70;50.60;;;;;;5135649;27;20212;-57
2022/03/26 03:21:39;;;;;;;32.70;22.30;;;9.70;50.80;;;;;;5135721;27;20244;-56
2022/03/26 03:24:07;;;;;;;30.92;22.25;;;9.70;50.70;;;;;;5135564;27;20291;-56
2022/03/26 03:26:33;;;;;;;38.40;24.15;;;9.70;50.60;;;;;;5134295;27;20278;-57
2022/03/26 03:29:02;;;;;;;36.63;23.33;;;9.60;50.40;;;;;;5135494;27;20659;-57
2022/03/26 03:31:29;;;;;;;33.60;22.80;;;9.60;50.40;;;;;;5134731;27;20255;-57
2022/03/26 03:33:56;;;;;;;38.50;23.20;;;9.70;50.80;;;;;;5135575;27;20227;-57
2022/03/26 03:36:23;;;;;;;34.28;22.05;;;9.70;50.90;;;;;;5135254;27;20204;-57
2022/03/26 03:38:50;;;;;;;32.80;22.38;;;9.70;50.50;;;;;;5135386;27;20205;-57
2022/03/26 03:41:18;;;;;;;32.90;22.80;;;9.70;50.60;;;;;;5133843;27;20252;-57
2022/03/26 03:43:44;;;;;;;30.77;21.65;;;9.60;50.50;;;;;;5135365;27;20213;-57
2022/03/26 03:46:13;;;;;;;31.75;21.40;;;9.60;50.50;;;;;;5135255;27;20302;-57
2022/03/26 03:48:40;;;;;;;31.88;22.10;;;9.60;50.50;;;;;;5135151;27;20213;-56
2022/03/26 03:51:08;;;;;;;32.95;21.35;;;9.50;50.60;;;;;;5135064;27;20684;-57
2022/03/26 03:53:35;;;;;;;35.80;22.42;;;9.50;50.30;;;;;;5134905;27;20202;-57
2022/03/26 03:56:02;;;;;;;33.13;22.92;;;9.50;50.40;;;;;;5133767;27;20195;-57
2022/03/26 03:58:29;;;;;;;30.00;20.10;;;9.50;50.60;;;;;;5135005;27;20198;-57
2022/03/26 04:00:57;;;;;;;30.70;22.45;;;9.50;50.70;;;;;;5134775;27;20321;-57
2022/03/26 04:03:25;;;;;;;34.50;22.50;;;9.50;50.80;;;;;;5134853;27;20198;-57
2022/03/26 04:05:52;;;;;;;30.63;22.00;;;9.50;50.90;;;;;;5134892;27;20294;-57
2022/03/26 04:08:18;;;;;;;35.10;22.70;;;9.40;51.10;;;;;;5134652;27;20241;-57
2022/03/26 04:10:45;;;;;;;36.45;22.58;;;9.40;50.90;;;;;;5133476;27;20624;-57
2022/03/26 04:13:12;;;;;;;35.50;23.00;;;9.30;51.60;;;;;;5134762;27;20675;-57
2022/03/26 04:15:39;;;;;;;31.30;22.58;;;9.30;52.30;;;;;;5134651;27;20240;-57
2022/03/26 04:18:06;;;;;;;37.10;23.38;;;9.30;51.80;;;;;;5134610;27;20285;-57
2022/03/26 04:20:35;;;;;;;37.35;23.35;;;9.30;51.70;;;;;;5134519;27;20230;-57
2022/03/26 04:23:02;;;;;;;33.90;23.20;;;9.20;52.20;;;;;;5134332;27;20255;-57
2022/03/26 04:25:29;;;;;;;38.03;25.13;;;9.20;52.30;;;;;;5133209;27;20278;-56
2022/03/26 04:27:55;;;;;;;32.13;22.40;;;9.20;52.50;;;;;;5134630;27;20316;-56
2022/03/26 04:30:22;;;;;;;31.85;22.35;;;9.10;52.40;;;;;;5134318;27;20719;-56
2022/03/26 04:32:49;;;;;;;38.53;24.80;;;9.10;52.60;;;;;;5134449;27;20611;-56
2022/03/26 04:35:17;;;;;;;35.60;24.60;;;9.10;52.50;;;;;;5134238;27;20198;-56
2022/03/26 04:37:45;;;;;;;34.47;23.65;;;9.00;53.70;;;;;;5134146;27;20320;-56
2022/03/26 04:40:14;;;;;;;38.83;22.83;;;9.00;53.40;;;;;;5132831;27;20313;-56
2022/03/26 04:42:42;;;;;;;34.30;23.40;;;8.90;53.10;;;;;;5134160;27;20248;-56
2022/03/26 04:45:10;;;;;;;33.33;22.13;;;8.90;53.10;;;;;;5134249;27;20209;-56
2022/03/26 04:47:38;;;;;;;35.95;23.98;;;8.90;53.60;;;;;;5134173;27;20203;-56
2022/03/26 04:50:06;;;;;;;36.78;22.95;;;8.90;53.90;;;;;;5133924;27;20298;-56
2022/03/26 04:52:32;;;;;;;39.10;24.65;;;8.90;53.60;;;;;;5134077;27;20214;-56
2022/03/26 04:55:01;;;;;;;34.42;23.52;;;8.80;53.90;;;;;;5132815;27;20202;-56
2022/03/26 04:57:28;;;;;;;44.03;24.40;;;8.70;53.90;;;;;;5134031;27;20205;-56
2022/03/26 04:59:55;;;;;;;36.67;25.13;;;8.70;54.00;;;;;;5133780;27;20660;-57
2022/03/26 05:02:22;;;;;;;31.70;22.90;;;8.60;55.30;;;;;;5133880;27;20299;-56
2022/03/26 05:04:49;;;;;;;32.20;23.33;;;8.60;54.90;;;;;;5134014;27;20204;-56
2022/03/26 05:10:02;;;;;;;31.73;21.52;;;8.50;54.60;;;;;;5132597;27;20197;-56
2022/03/26 05:12:28;;;;;;;35.10;21.95;;;8.60;54.60;;;;;;5133869;27;20203;-56
2022/03/26 05:14:55;;;;;;;32.30;22.40;;;8.60;54.30;;;;;;5133702;27;20234;-56
2022/03/26 05:17:22;;;;;;;34.05;23.52;;;8.60;54.00;;;;;;5133786;27;20200;-56
2022/03/26 05:19:49;;;;;;;34.95;23.77;;;8.50;54.90;;;;;;5133596;27;20207;-56
2022/03/26 05:22:16;;;;;;;34.95;22.73;;;8.40;54.80;;;;;;5133685;27;20237;-55
2022/03/26 05:24:43;;;;;;;34.50;23.25;;;8.50;54.60;;;;;;5132544;27;20198;-55
2022/03/26 05:27:11;;;;;;;27.90;20.50;;;8.50;54.40;;;;;;5133659;27;20286;-58
2022/03/26 05:29:38;;;;;;;32.90;22.45;;;8.50;54.60;;;;;;5133411;27;20323;-56
2022/03/26 05:32:07;;;;;;;33.67;22.27;;;8.40;54.50;;;;;;5133601;27;20213;-56
2022/03/26 05:34:34;;;;;;;34.67;23.95;;;8.30;54.40;;;;;;5133639;27;20633;-56
2022/03/26 05:37:01;;;;;;;32.15;23.00;;;8.30;54.60;;;;;;5133608;27;20213;-56
2022/03/26 05:39:27;;;;;;;37.33;23.52;;;8.30;54.80;;;;;;5133735;27;20306;-55
2022/03/26 05:41:54;;;;;;;35.25;22.90;;;8.30;55.60;;;;;;5132096;27;20226;-55
2022/03/26 05:44:23;;;;;;;33.60;23.20;;;8.20;55.80;;;;;;5133375;27;20559;-56
2022/03/26 05:46:50;;;;;;;32.97;24.17;;;8.10;56.00;;;;;;5133654;27;20202;-55
2022/03/26 05:49:17;;;;;;;34.20;22.70;;;8.10;56.20;;;;;;5133474;27;20280;-58
2022/03/26 05:51:44;;;;;;;36.33;24.17;;;8.10;56.20;;;;;;5133422;27;20557;-58
2022/03/26 05:54:10;;;;;;;30.17;22.08;;;8.10;56.40;;;;;;5135474;27;20641;-58
2022/03/26 05:56:38;;;;;;;34.70;22.92;;;8.20;56.30;;;;;;5135939;27;20286;-58
2022/03/26 05:59:05;;;;;;;34.40;23.23;;;8.20;55.70;;;;;;5137333;27;20287;-58
2022/03/26 06:01:34;;;;;;;33.55;23.30;;;8.30;56.00;;;;;;5137512;27;20256;-56
2022/03/26 06:04:01;;;;;;;33.88;22.92;;;8.30;56.20;;;;;;5137290;27;20214;-55
2022/03/26 06:06:28;;;;;;;35.88;23.33;;;8.30;55.90;;;;;;5137170;27;20556;-56
2022/03/26 06:08:55;;;;;;;33.78;22.52;;;8.40;55.90;;;;;;5137043;27;20622;-57
2022/03/26 06:11:23;;;;;;;34.72;22.90;;;8.50;55.30;;;;;;5135873;27;20213;-56
2022/03/26 06:13:50;;;;;;;34.47;23.38;;;8.50;55.00;;;;;;5137169;27;20233;-56
2022/03/26 06:16:17;;;;;;;36.95;21.85;;;8.50;55.90;;;;;;5137081;27;20230;-55
2022/03/26 06:18:45;;;;;;;28.40;21.58;;;8.60;55.30;;;;;;5136877;27;20675;-56
2022/03/26 06:21:12;;;;;;;34.97;23.83;;;8.70;55.10;;;;;;5136954;27;20594;-56
2022/03/26 06:23:39;;;;;;;34.28;23.00;;;8.70;54.90;;;;;;5136743;27;20195;-56
2022/03/26 06:26:06;;;;;;;35.85;22.10;;;8.70;55.60;;;;;;5135521;27;20298;-55
2022/03/26 06:28:34;;;;;;;34.30;22.92;;;8.60;55.70;;;;;;5136750;27;20218;-56
2022/03/26 06:31:00;;;;;;;38.72;23.15;;;8.70;55.10;;;;;;5136689;27;20245;-57
2022/03/26 06:33:27;;;;;;;32.80;22.15;;;8.70;55.10;;;;;;5136729;27;20209;-58
2022/03/26 06:35:55;;;;;;;29.80;20.85;;;8.70;55.60;;;;;;5136785;27;20547;-56
2022/03/26 06:38:23;;;;;;;33.97;22.38;;;8.80;55.50;;;;;;5136440;27;20205;-56
2022/03/26 06:40:50;;;;;;;36.25;25.35;;;8.80;55.30;;;;;;5135200;27;20240;-55
2022/03/26 06:43:16;;;;;;;48.08;30.20;;;8.80;55.50;;;;;;5136586;27;20203;-56
2022/03/26 06:45:43;;;;;;;40.67;26.35;;;8.90;56.20;;;;;;5136306;27;20246;-55
2022/03/26 06:48:10;;;;;;;44.05;27.85;;;8.90;55.40;;;;;;5136279;27;20740;-55
2022/03/26 06:50:37;;;;;;;53.92;32.42;;;8.90;55.30;;;;;;5136368;27;20210;-56
2022/03/26 06:53:06;;;;;;;40.13;26.08;;;8.90;55.60;;;;;;5136227;27;20221;-56
2022/03/26 06:55:32;;;;;;;36.50;24.45;;;9.00;55.20;;;;;;5135029;27;20242;-56
2022/03/26 06:57:59;;;;;;;37.05;23.85;;;9.00;55.30;;;;;;5136171;27;20295;-56
2022/03/26 07:00:27;;;;;;;34.63;24.42;;;9.10;55.40;;;;;;5135971;27;20231;-56
2022/03/26 07:02:53;;;;;;;38.47;24.60;;;9.10;55.00;;;;;;5136094;27;20305;-56
2022/03/26 07:05:20;;;;;;;32.22;23.13;;;9.10;55.00;;;;;;5134989;27;20290;-58
2022/03/26 07:07:47;;;;;;;36.65;24.35;;;9.20;54.70;;;;;;5135934;27;20194;-58
2022/03/26 07:10:16;;;;;;;33.30;21.95;;;9.20;54.80;;;;;;5134662;27;20286;-58
2022/03/26 07:12:43;;;;;;;36.13;23.80;;;9.20;54.80;;;;;;5136029;27;20242;-58
2022/03/26 07:15:10;;;;;;;34.30;24.25;;;9.20;54.50;;;;;;5135925;27;20668;-58
2022/03/26 07:17:39;;;;;;;40.53;24.73;;;9.20;54.40;;;;;;5135818;27;20203;-58
2022/03/26 07:20:07;;;;;;;33.17;23.70;;;9.20;54.40;;;;;;5135555;27;20290;-55
2022/03/26 07:22:35;;;;;;;34.38;23.85;;;9.20;54.20;;;;;;5135654;27;20235;-55
2022/03/26 07:25:02;;;;;;;40.88;25.05;;;9.20;54.40;;;;;;5134542;27;20551;-56
2022/03/26 07:27:32;;;;;;;33.83;24.25;;;9.20;54.20;;;;;;5135693;27;20207;-57
2022/03/26 07:29:59;;;;;;;39.72;26.08;;;9.20;54.60;;;;;;5135521;27;20237;-56
2022/03/26 07:32:26;;;;;;;39.53;24.55;;;9.20;54.60;;;;;;5135482;27;20199;-57
2022/03/26 07:34:53;;;;;;;34.80;25.15;;;9.20;54.60;;;;;;5135524;27;20238;-56
2022/03/26 07:37:20;;;;;;;34.28;23.67;;;9.20;54.40;;;;;;5135353;27;20199;-56
2022/03/26 07:39:47;;;;;;;36.38;24.00;;;9.30;54.40;;;;;;5134274;27;20202;-57
2022/03/26 07:42:14;;;;;;;38.75;24.88;;;9.30;54.40;;;;;;5135403;27;20233;-57
2022/03/26 07:44:42;;;;;;;35.47;24.83;;;9.40;54.40;;;;;;5135273;27;20234;-56
2022/03/26 07:47:09;;;;;;;35.30;23.95;;;9.40;54.70;;;;;;5135342;27;20632;-56
2022/03/26 07:49:36;;;;;;;39.20;25.67;;;9.50;54.30;;;;;;5135200;27;20654;-57
2022/03/26 07:52:04;;;;;;;38.38;24.77;;;9.60;54.20;;;;;;5135036;27;20225;-57
2022/03/26 07:54:31;;;;;;;36.95;24.65;;;9.50;54.30;;;;;;5135011;27;20199;-57
2022/03/26 07:56:58;;;;;;;44.75;25.85;;;9.60;54.10;;;;;;5134178;27;20202;-57
2022/03/26 07:59:25;;;;;;;38.03;25.02;;;9.60;54.60;;;;;;5135093;27;20283;-56
2022/03/26 08:01:53;;;;;;;33.67;23.42;;;9.70;54.10;;;;;;5134731;27;20657;-57
2022/03/26 08:04:20;;;;;;;35.03;23.58;;;9.70;53.90;;;;;;5134855;27;20275;-57
2022/03/26 08:06:47;;;;;;;32.42;23.20;;;9.80;53.80;;;;;;5135023;27;20629;-56
2022/03/26 08:09:14;;;;;;;34.45;23.70;;;9.90;53.40;;;;;;5134701;27;20286;-57
2022/03/26 08:11:42;;;;;;;33.17;22.90;;;10.00;53.30;;;;;;5133411;27;20202;-57
2022/03/26 08:14:09;;;;;;;36.05;24.65;;;10.00;53.30;;;;;;5134805;27;20209;-57
2022/03/26 08:16:36;;;;;;;37.95;25.80;;;10.10;53.10;;;;;;5134299;27;20199;-56
2022/03/26 08:19:04;;;;;;;38.40;25.10;;;10.10;53.00;;;;;;5134567;27;20203;-56
2022/03/26 08:21:35;;;;;;;35.60;24.90;;;10.20;53.00;;;;;;5134427;27;20317;-59
2022/03/26 08:24:02;;;;;;;32.72;24.40;;;10.30;52.80;;;;;;5134490;27;20202;-59
2022/03/26 08:26:29;;;;;;;37.33;23.88;;;10.40;52.40;;;;;;5133455;27;20202;-59
2022/03/26 08:28:59;;;;;;;34.00;22.88;;;10.40;52.30;;;;;;5134132;27;20258;-58
2022/03/26 08:31:27;;;;;;;39.50;26.63;;;10.60;51.90;;;;;;5134402;27;20214;-58
2022/03/26 08:33:54;;;;;;;37.15;24.67;;;10.60;51.70;;;;;;5134493;27;20195;-58
2022/03/26 08:36:24;;;;;;;34.58;23.35;;;10.70;51.60;;;;;;5134506;27;20203;-58
2022/03/26 08:38:51;;;;;;;34.25;24.02;;;10.80;51.70;;;;;;5134033;27;20297;-58
2022/03/26 08:41:21;;;;;;;38.28;24.75;;;10.90;51.70;;;;;;5132822;27;20614;-58
2022/03/26 08:43:49;;;;;;;41.10;25.73;;;11.00;51.50;;;;;;5134102;27;20742;-58
2022/03/26 08:46:16;;;;;;;34.63;24.73;;;11.00;51.30;;;;;;5134203;27;20209;-58
2022/03/26 08:48:43;;;;;;;34.85;23.38;;;11.10;51.10;;;;;;5134077;27;20237;-58
2022/03/26 08:51:10;;;;;;;37.90;24.75;;;11.20;51.10;;;;;;5134159;27;20515;-58
2022/03/26 08:53:39;;;;;;;42.08;26.65;;;11.30;51.10;;;;;;5134005;27;20661;-58
2022/03/26 08:56:06;;;;;;;40.67;26.38;;;11.30;50.80;;;;;;5132687;27;20661;-58
2022/03/26 08:58:33;;;;;;;37.67;25.35;;;11.40;51.00;;;;;;5114850;27;20219;-57
2022/03/26 09:01:01;;;;;;;35.17;26.27;;;11.50;50.70;;;;;;5113200;28;20209;-58
2022/03/26 09:03:28;;;;;;;35.28;24.05;;;11.50;50.50;;;;;;5118113;27;20198;-58
2022/03/26 09:05:56;;;;;;;39.47;26.02;;;11.60;50.60;;;;;;5133250;27;20199;-57
2022/03/26 09:08:23;;;;;;;34.75;23.88;;;11.70;50.40;;;;;;5133211;27;20244;-57
2022/03/26 09:10:51;;;;;;;43.80;26.42;;;11.80;50.40;;;;;;5131856;27;20209;-57
2022/03/26 09:13:18;;;;;;;36.05;25.10;;;11.80;49.90;;;;;;5133118;27;20199;-57
2022/03/26 09:15:46;;;;;;;38.78;27.05;;;12.00;49.80;;;;;;5133099;27;20248;-57
2022/03/26 09:18:12;;;;;;;39.85;23.15;;;12.10;49.60;;;;;;5133009;27;20211;-57
2022/03/26 09:20:40;;;;;;;40.13;24.60;;;12.20;49.10;;;;;;5133151;27;20346;-57
2022/03/26 09:23:07;;;;;;;40.28;24.00;;;12.30;48.80;;;;;;5132763;27;20266;-57
2022/03/26 09:25:35;;;;;;;31.15;23.45;;;12.40;48.80;;;;;;5131555;27;20206;-57
2022/03/26 09:28:04;;;;;;;33.97;25.65;;;12.50;48.60;;;;;;5133176;27;20601;-57
2022/03/26 09:30:32;;;;;;;37.13;24.42;;;12.50;48.30;;;;;;5137143;27;20234;-57
2022/03/26 09:33:00;;;;;;;38.60;26.38;;;12.70;48.50;;;;;;5137263;27;20218;-57
2022/03/26 09:35:27;;;;;;;34.80;25.05;;;12.80;47.80;;;;;;5137087;27;20206;-57
2022/03/26 09:37:54;;;;;;;35.00;26.90;;;12.90;47.50;;;;;;5136777;27;20204;-57
2022/03/26 09:40:23;;;;;;;40.53;26.55;;;12.90;47.40;;;;;;5136050;27;20198;-57
2022/03/26 09:42:50;;;;;;;41.38;27.55;;;13.00;47.90;;;;;;5136906;27;20234;-57
2022/03/26 09:45:19;;;;;;;40.15;25.73;;;13.20;47.60;;;;;;5137140;27;20199;-57
2022/03/26 09:47:46;;;;;;;34.47;23.63;;;13.30;47.40;;;;;;5136818;27;20202;-57
2022/03/26 09:50:14;;;;;;;38.20;26.27;;;13.40;47.50;;;;;;5136712;27;20205;-57
2022/03/26 09:52:41;;;;;;;36.70;26.00;;;13.50;47.50;;;;;;5136569;27;20205;-57
2022/03/26 09:55:11;;;;;;;36.03;27.00;;;13.60;47.10;;;;;;5135704;27;20293;-57
2022/03/26 09:57:38;;;;;;;44.50;28.98;;;13.80;46.80;;;;;;5136530;27;20237;-57
2022/03/26 10:00:07;;;;;;;38.22;26.70;;;13.90;46.70;;;;;;5136729;27;20293;-58
2022/03/26 10:02:35;;;;;;;35.45;25.65;;;14.00;46.30;;;;;;5136557;27;20262;-57
2022/03/26 10:05:04;;;;;;;34.08;25.58;;;14.10;46.10;;;;;;5136223;27;20576;-59
2022/03/26 10:07:31;;;;;;;37.92;27.17;;;14.20;45.80;;;;;;5136402;27;20661;-59
2022/03/26 10:09:58;;;;;;;34.85;25.35;;;14.30;45.60;;;;;;5135105;27;20209;-59
2022/03/26 10:12:26;;;;;;;39.42;26.08;;;14.40;45.50;;;;;;5136663;27;20225;-59
2022/03/26 10:14:54;;;;;;;41.05;27.15;;;14.60;45.40;;;;;;5137033;27;20728;-58
2022/03/26 10:17:23;;;;;;;43.55;28.45;;;14.80;45.40;;;;;;5137010;27;20293;-57
2022/03/26 10:19:53;;;;;;;40.83;27.65;;;14.90;44.50;;;;;;5136807;27;20203;-57
2022/03/26 10:22:26;;;;;;;39.72;26.73;;;15.00;44.60;;;;;;5136848;27;20701;-57
2022/03/26 10:24:53;;;;;;;38.78;27.60;;;15.20;44.30;;;;;;5135567;27;20293;-57
2022/03/26 10:27:20;;;;;;;44.95;28.65;;;15.30;44.20;;;;;;5136904;27;20199;-57
2022/03/26 10:29:51;;;;;;;37.85;26.20;;;15.50;44.60;;;;;;5136647;27;20236;-57
2022/03/26 10:32:41;;;;;;;38.92;27.50;;;15.60;44.00;;;;;;5136825;27;20278;-59
2022/03/26 10:35:18;;;;;;;42.80;29.15;;;15.70;44.00;;;;;;5136609;27;20297;-58
2022/03/26 10:37:53;;;;;;;39.90;28.13;;;15.70;43.50;;;;;;5136489;27;20567;-57
2022/03/26 10:40:27;;;;;;;39.10;26.20;;;15.80;43.20;;;;;;5134967;27;20251;-57
2022/03/26 10:42:55;;;;;;;44.25;27.23;;;16.00;43.00;;;;;;5136375;27;20232;-57
2022/03/26 10:45:23;;;;;;;40.00;27.30;;;16.10;42.40;;;;;;5136436;27;20553;-57
2022/03/26 10:47:50;;;;;;;41.72;28.25;;;16.20;42.40;;;;;;5136328;27;20633;-58
2022/03/26 10:50:19;;;;;;;38.83;26.23;;;16.50;42.40;;;;;;5136279;27;20199;-57
2022/03/26 10:52:46;;;;;;;39.72;26.15;;;16.70;42.20;;;;;;5136270;27;20501;-57
2022/03/26 10:55:15;;;;;;;36.90;27.43;;;16.70;42.90;;;;;;5134953;27;20207;-58
2022/03/26 10:57:45;;;;;;;33.73;26.83;;;16.80;41.30;;;;;;5136324;27;20980;-57
2022/03/26 11:00:13;;;;;;;36.30;27.23;;;17.10;41.80;;;;;;5136112;27;20536;-57
2022/03/26 11:02:41;;;;;;;36.10;24.40;;;17.20;41.40;;;;;;5136089;27;20492;-57
2022/03/26 11:05:09;;;;;;;38.00;26.53;;;17.40;39.50;;;;;;5136051;27;20452;-57
2022/03/26 11:07:40;;;;;;;35.83;26.27;;;17.60;40.10;;;;;;5135838;27;20448;-58
2022/03/26 11:10:09;;;;;;;35.93;26.43;;;17.80;41.10;;;;;;5134733;27;20505;-57
2022/03/26 11:12:41;;;;;;;37.97;25.30;;;18.00;36.60;;;;;;5135948;27;20551;-57
2022/03/26 11:15:11;;;;;;;36.47;26.43;;;17.90;35.40;;;;;;5135895;27;20805;-58
2022/03/26 11:17:59;;;;;;;32.90;25.50;;;18.00;37.10;;;;;;5135778;27;20458;-57
2022/03/26 11:20:59;;;;;;;32.97;24.90;;;18.10;37.50;;;;;;5135769;27;20455;-57
2022/03/26 11:23:39;;;;;;;34.47;24.87;;;18.80;36.00;;;;;;5135287;27;21045;-58
2022/03/26 11:26:29;;;;;;;33.60;25.47;;;20.70;34.60;;;;;;5134368;27;20451;-57
2022/03/26 11:29:08;;;;;;;32.07;25.97;;;22.70;30.90;;;;;;5135504;27;20468;-58
2022/03/26 11:31:43;;;;;;;31.00;23.47;;;24.60;29.70;;;;;;5135514;27;20444;-58
2022/03/26 11:34:10;;;;;;;36.47;26.93;;;25.90;27.80;;;;;;5135545;27;20471;-58
2022/03/26 11:36:37;;;;;;;29.73;25.83;;;26.40;27.10;;;;;;5135530;27;20456;-58
2022/03/26 11:39:14;;;;;;;31.03;25.83;;;26.70;26.80;;;;;;5135228;27;20436;-58
2022/03/26 11:41:42;;;;;;;35.20;27.20;;;27.10;25.80;;;;;;5133903;27;20542;-58
2022/03/26 11:44:09;;;;;;;32.17;25.50;;;27.40;26.30;;;;;;5135366;27;20456;-58
2022/03/26 11:52:16;;;;;;;31.87;27.13;;;27.00;24.50;;;;;;5114039;28;20438;-57
2022/03/26 11:54:45;;;;;;;32.10;25.17;;;26.40;24.10;;;;;;5113215;28;20449;-58
2022/03/26 11:57:17;;;;;;;32.77;26.40;;;26.10;26.00;;;;;;5114541;28;20433;-58
2022/03/26 11:59:45;;;;;;;30.07;24.40;;;25.40;24.80;;;;;;5114284;28;20446;-58
2022/03/26 12:02:26;;;;;;;29.40;24.80;;;25.10;25.80;;;;;;5114330;28;20486;-58
2022/03/26 12:04:58;;;;;;;28.70;23.60;;;25.30;24.90;;;;;;5114493;28;20456;-58
2022/03/26 12:07:29;;;;;;;26.93;23.20;;;25.00;25.90;;;;;;5114522;28;20778;-58
2022/03/26 12:10:09;;;;;;;28.00;23.97;;;24.90;25.60;;;;;;5112844;28;20728;-58
2022/03/26 12:12:50;;;;;;;28.87;23.60;;;24.10;24.10;;;;;;5114082;28;20457;-58
2022/03/26 12:15:31;;;;;;;34.93;26.20;;;23.80;28.00;;;;;;5114371;28;20441;-58
2022/03/26 12:18:12;;;;;;;28.03;24.57;;;23.40;26.50;;;;;;5116505;27;20481;-58
2022/03/26 12:20:41;;;;;;;27.33;24.00;;;23.30;26.10;;;;;;5134526;27;20539;-58
2022/03/26 12:23:12;;;;;;;24.97;22.20;;;23.40;26.40;;;;;;5134468;27;20484;-58
2022/03/26 12:25:46;;;;;;;27.17;22.77;;;23.50;27.00;;;;;;5133302;27;20557;-58
2022/03/26 12:28:13;;;;;;;29.80;23.30;;;23.50;26.00;;;;;;5134433;27;20440;-58
2022/03/26 12:30:45;;;;;;;27.93;20.63;;;22.90;28.20;;;;;;5134265;27;20480;-58
2022/03/26 12:33:13;;;;;;;26.57;22.57;;;22.60;27.30;;;;;;5134212;27;20528;-58
2022/03/26 12:35:42;;;;;;;26.17;23.40;;;22.50;28.60;;;;;;5134496;27;20452;-58
2022/03/26 12:38:10;;;;;;;24.07;21.20;;;22.30;29.40;;;;;;5134131;27;20505;-57
2022/03/26 12:40:38;;;;;;;22.83;19.90;;;22.50;27.70;;;;;;5132834;27;20455;-57
2022/03/26 12:43:10;;;;;;;21.80;19.50;;;22.60;26.30;;;;;;5134252;27;20490;-57